Time;durP1;ratioP1;P1;durP2;ratioP2;P2;SDS_P1;SDS_P2;PMS_P1;PMS_P2;Temp;Humidity;BMP_temperature;BMP_pressure;BME280_temperature;BME280_humidity;BME280_pressure;Samples;Min_cycle;Max_cycle;Signal;HPM_P1;HPM_P2
2023/03/21 00:00:20;;;;;;;34.70;21.00;;;;;;;8.73;100.00;162847.03;5061295;28;20036;-60
2023/03/21 00:02:45;;;;;;;37.45;16.38;;;;;;;8.76;100.00;162855.09;5051671;28;20075;-60
2023/03/21 00:05:10;;;;;;;26.08;17.25;;;;;;;8.77;100.00;162857.78;5050408;28;20037;-60
2023/03/21 00:07:36;;;;;;;38.17;19.58;;;;;;;8.78;100.00;162860.50;5051528;28;20028;-61
2023/03/21 00:10:01;;;;;;;27.63;18.38;;;;;;;8.80;100.00;162865.91;5050377;28;20596;-61
2023/03/21 00:12:31;;;;;;;29.92;17.05;;;;;;;8.82;100.00;162871.31;5051853;28;20029;-61
2023/03/21 00:15:03;;;;;;;23.17;17.65;;;;;;;8.79;100.00;162861.81;5057575;28;20040;-60
2023/03/21 00:17:31;;;;;;;23.33;16.70;;;;;;;8.83;100.00;162873.94;5071808;28;20024;-60
2023/03/21 00:19:57;;;;;;;25.87;16.77;;;;;;;8.87;100.00;162884.78;5069814;28;20071;-60
2023/03/21 00:22:22;;;;;;;32.28;17.90;;;;;;;8.87;100.00;162883.38;5071299;28;20475;-61
2023/03/21 00:24:47;;;;;;;26.92;16.20;;;;;;;8.83;100.00;162873.94;5069673;28;20041;-61
2023/03/21 00:27:13;;;;;;;26.92;18.85;;;;;;;8.81;100.00;162868.59;5071274;28;20035;-61
2023/03/21 00:29:38;;;;;;;34.65;19.98;;;;;;;8.86;100.00;162882.06;5069823;28;20051;-61
2023/03/21 00:32:04;;;;;;;31.98;21.25;;;;;;;8.84;100.00;162876.66;5071441;28;20467;-61
2023/03/21 00:34:29;;;;;;;36.67;18.52;;;;;;;8.89;100.00;162890.19;5069814;28;20085;-61
2023/03/21 00:36:54;;;;;;;28.73;17.92;;;;;;;8.89;100.00;162888.81;5070872;28;20012;-61
2023/03/21 00:39:21;;;;;;;31.08;18.52;;;;;;;8.95;100.00;162904.97;5069628;28;20025;-60
2023/03/21 00:41:46;;;;;;;29.08;19.67;;;;;;;8.96;100.00;162906.34;5065993;28;20028;-61
2023/03/21 00:44:14;;;;;;;41.92;17.58;;;;;;;8.95;100.00;162903.66;5071055;28;20024;-61
2023/03/21 00:46:40;;;;;;;36.97;20.00;;;;;;;8.97;100.00;162909.06;5069273;28;20041;-61
2023/03/21 00:49:05;;;;;;;33.38;22.58;;;;;;;8.96;100.00;162906.34;5071064;28;20026;-61
2023/03/21 00:51:30;;;;;;;30.17;18.20;;;;;;;8.96;100.00;162907.69;5069349;28;20032;-61
2023/03/21 00:53:57;;;;;;;25.65;19.52;;;;;;;8.94;100.00;162902.28;5070574;28;20032;-61
2023/03/21 00:56:23;;;;;;;29.45;19.52;;;;;;;8.94;100.00;162900.94;5069501;28;20109;-61
2023/03/21 00:58:48;;;;;;;30.85;18.35;;;;;;;8.93;100.00;162898.25;5070647;28;20020;-61
2023/03/21 01:01:14;;;;;;;40.85;19.08;;;;;;;8.89;100.00;162890.19;5068977;28;20040;-61
2023/03/21 01:03:49;;;;;;;29.17;18.65;;;;;;;8.92;100.00;162895.53;5070483;28;20031;-61
2023/03/21 01:06:18;;;;;;;30.35;21.63;;;;;;;8.89;100.00;162890.19;5068922;28;20050;-61
2023/03/21 01:08:45;;;;;;;31.55;17.52;;;;;;;8.90;100.00;162891.50;5070294;28;20035;-61
2023/03/21 01:11:13;;;;;;;29.35;20.65;;;;;;;8.92;100.00;162895.53;5069120;28;20044;-61
2023/03/21 01:13:39;;;;;;;23.15;16.85;;;;;;;8.91;100.00;162892.81;5070418;28;20036;-61
2023/03/21 01:16:07;;;;;;;22.17;17.60;;;;;;;8.86;100.00;162880.75;5069365;28;20040;-61
2023/03/21 01:18:34;;;;;;;29.40;17.48;;;;;;;8.88;100.00;162887.47;5070695;28;20044;-60
2023/03/21 01:21:00;;;;;;;39.88;18.33;;;;;;;8.92;100.00;162895.53;5068495;28;20114;-61
2023/03/21 01:23:27;;;;;;;36.38;22.17;;;;;;;8.95;100.00;162903.66;5070948;28;20028;-61
2023/03/21 01:25:54;;;;;;;24.23;18.75;;;;;;;8.96;100.00;162906.34;5069065;28;20033;-61
2023/03/21 01:28:19;;;;;;;28.55;18.83;;;;;;;8.95;100.00;162903.66;5070492;28;20025;-61
2023/03/21 01:30:50;;;;;;;25.15;18.23;;;;;;;8.92;100.00;162895.53;5069079;28;20706;-61
2023/03/21 01:33:18;;;;;;;34.00;20.05;;;;;;;8.89;100.00;162890.19;5070551;28;20035;-60
2023/03/21 01:35:43;;;;;;;24.50;18.85;;;;;;;8.89;100.00;162890.19;5068346;28;20101;-60
2023/03/21 01:38:09;;;;;;;31.02;22.13;;;;;;;8.88;100.00;162887.47;5070653;28;20621;-60
2023/03/21 01:40:35;;;;;;;32.63;20.02;;;;;;;8.92;100.00;162895.53;5069408;28;20047;-60
2023/03/21 01:43:01;;;;;;;38.63;20.65;;;;;;;8.83;100.00;162873.94;5069922;28;20025;-61
2023/03/21 01:46:04;;;;;;;26.40;17.70;;;;;;;8.85;100.00;162879.38;5069048;28;20514;-61
2023/03/21 01:48:30;;;;;;;24.00;18.95;;;;;;;8.83;100.00;162873.94;5070383;28;20519;-61
2023/03/21 01:50:56;;;;;;;28.13;16.88;;;;;;;8.85;100.00;162879.38;5068424;28;20538;-61
2023/03/21 01:53:28;;;;;;;28.40;20.80;;;;;;;8.87;100.00;162884.78;5070723;28;20104;-61
2023/03/21 01:55:56;;;;;;;26.40;20.38;;;;;;;8.87;100.00;162884.78;5068842;28;20157;-61
2023/03/21 01:58:21;;;;;;;25.45;19.10;;;;;;;8.79;100.00;162863.19;5070274;28;20059;-61
2023/03/21 02:00:50;;;;;;;25.42;18.55;;;;;;;8.77;100.00;162857.78;5068966;28;20629;-59
2023/03/21 02:03:16;;;;;;;33.90;21.38;;;;;;;8.78;100.00;162860.50;5070194;28;20039;-60
2023/03/21 02:06:05;;;;;;;28.02;20.20;;;;;;;8.76;100.00;162855.09;5067870;28;20415;-59
2023/03/21 02:08:31;;;;;;;32.33;19.67;;;;;;;8.75;100.00;162852.38;5070631;28;20037;-59
2023/03/21 02:10:58;;;;;;;31.13;21.13;;;;;;;8.79;100.00;162861.81;5068619;28;20071;-59
2023/03/21 02:13:23;;;;;;;31.98;20.65;;;;;;;8.77;100.00;162857.78;5071416;28;20021;-60
2023/03/21 02:16:00;;;;;;;35.13;21.80;;;;;;;8.79;100.00;162863.19;5072183;28;20051;-59
2023/03/21 02:18:32;;;;;;;32.50;20.35;;;;;;;8.75;100.00;162852.38;5073890;28;20072;-59
2023/03/21 02:21:36;;;;;;;34.03;19.05;;;;;;;8.59;100.00;162809.28;5071791;28;20620;-59
2023/03/21 02:24:40;;;;;;;35.88;21.95;;;;;;;8.66;100.00;162828.16;5053794;28;20033;-59
2023/03/21 02:27:11;;;;;;;30.58;23.02;;;;;;;8.59;100.00;162810.59;5072115;28;20150;-61
2023/03/21 02:29:57;;;;;;;29.58;20.88;;;;;;;8.51;100.00;162790.41;5072252;28;20041;-60
2023/03/21 02:33:00;;;;;;;33.25;22.33;;;;;;;8.47;100.00;162779.59;5073629;28;20552;-60
2023/03/21 02:35:58;;;;;;;37.13;24.27;;;;;;;8.40;100.00;162760.69;5071953;28;20064;-60
2023/03/21 02:38:51;;;;;;;33.55;24.38;;;;;;;8.37;100.00;162752.63;5064940;28;20036;-61
2023/03/21 02:41:22;;;;;;;38.45;23.85;;;;;;;8.34;100.00;162744.50;5064073;28;20423;-61
2023/03/21 02:44:04;;;;;;;34.38;24.58;;;;;;;8.31;100.00;162736.41;5073042;28;20033;-61
2023/03/21 02:46:58;;;;;;;44.70;26.23;;;;;;;8.30;100.00;162733.75;5071783;28;20083;-61
2023/03/21 02:49:41;;;;;;;36.30;25.55;;;;;;;8.29;100.00;162731.03;5071419;28;20070;-62
2023/03/21 02:52:11;;;;;;;37.65;23.25;;;;;;;8.30;100.00;162733.75;5073699;28;20129;-61
2023/03/21 02:54:38;;;;;;;43.35;24.10;;;;;;;8.29;100.00;162731.03;5072111;28;20029;-61
2023/03/21 02:57:04;;;;;;;40.20;27.35;;;;;;;8.26;100.00;162725.63;5072599;28;20031;-61
2023/03/21 02:59:31;;;;;;;38.00;24.15;;;;;;;8.28;100.00;162728.34;5071789;28;20525;-61
2023/03/21 03:01:57;;;;;;;45.30;26.95;;;;;;;8.27;100.00;162726.97;5072836;28;20120;-61
2023/03/21 03:04:27;;;;;;;51.35;29.67;;;;;;;8.29;100.00;162731.03;5071416;28;20071;-61
2023/03/21 03:07:39;;;;;;;38.17;25.30;;;;;;;8.28;100.00;162729.66;5072768;28;20025;-61
2023/03/21 03:10:07;;;;;;;40.90;25.67;;;;;;;8.34;100.00;162744.50;5068457;28;20048;-61
2023/03/21 03:13:20;;;;;;;41.88;27.80;;;;;;;8.37;100.00;162752.63;5072482;28;20021;-61
2023/03/21 03:15:52;;;;;;;41.88;28.38;;;;;;;8.37;100.00;162753.94;5070124;28;20051;-60
2023/03/21 03:18:40;;;;;;;36.20;26.58;;;;;;;8.37;100.00;162752.63;5072650;28;20048;-59
2023/03/21 03:21:37;;;;;;;39.50;27.13;;;;;;;8.38;100.00;162756.66;5071445;28;20041;-59
2023/03/21 03:24:43;;;;;;;32.60;25.63;;;;;;;8.38;100.00;162755.25;5071566;28;20120;-59
2023/03/21 03:27:16;;;;;;;32.55;27.00;;;;;;;8.36;100.00;162749.91;5070921;28;20395;-60
2023/03/21 03:29:45;;;;;;;43.40;24.95;;;;;;;8.36;100.00;162749.91;5071039;28;20131;-60
2023/03/21 03:32:20;;;;;;;43.38;27.70;;;;;;;8.38;100.00;162755.25;5072565;28;20021;-59
2023/03/21 03:34:55;;;;;;;41.42;32.58;;;;;;;8.40;100.00;162760.69;5070814;28;20107;-59
2023/03/21 03:37:25;;;;;;;37.20;26.25;;;;;;;8.43;100.00;162768.78;5072541;28;20113;-61
2023/03/21 03:39:59;;;;;;;34.50;26.45;;;;;;;8.38;100.00;162755.25;5071120;28;20037;-61
2023/03/21 03:42:32;;;;;;;40.00;31.52;;;;;;;8.38;100.00;162755.25;5072373;28;20035;-61
2023/03/21 03:44:58;;;;;;;53.05;30.27;;;;;;;8.37;100.00;162753.94;5070569;28;20036;-61
2023/03/21 03:47:35;;;;;;;41.10;27.10;;;;;;;8.41;100.00;162764.69;5072394;28;20021;-61
2023/03/21 03:50:08;;;;;;;41.90;26.50;;;;;;;8.44;100.00;162771.50;5070693;28;20048;-60
2023/03/21 03:52:38;;;;;;;38.42;26.40;;;;;;;8.47;100.00;162779.59;5071995;28;20039;-60
2023/03/21 03:55:04;;;;;;;34.67;25.95;;;;;;;8.48;100.00;162782.28;5070189;28;20445;-59
2023/03/21 03:57:30;;;;;;;33.15;24.67;;;;;;;8.49;100.00;162783.69;5072204;28;20040;-60
2023/03/21 03:59:55;;;;;;;49.50;27.52;;;;;;;8.48;100.00;162782.28;5070457;28;20519;-60
2023/03/21 04:02:21;;;;;;;39.53;28.33;;;;;;;8.50;100.00;162787.72;5071721;28;20028;-60
2023/03/21 04:04:51;;;;;;;37.90;26.35;;;;;;;8.52;100.00;162793.09;5070115;28;20629;-60
2023/03/21 04:07:17;;;;;;;41.17;28.02;;;;;;;8.49;100.00;162785.00;5071619;28;20028;-59
2023/03/21 04:09:42;;;;;;;30.45;24.00;;;;;;;8.50;100.00;162787.72;5069832;28;20047;-60
2023/03/21 04:12:08;;;;;;;29.58;25.02;;;;;;;8.48;100.00;162782.28;5071791;28;20031;-61
2023/03/21 04:14:33;;;;;;;39.80;24.52;;;;;;;8.49;100.00;162783.69;5070189;28;20044;-61
2023/03/21 04:16:58;;;;;;;30.92;24.52;;;;;;;8.53;100.00;162795.75;5071271;28;20020;-61
2023/03/21 04:19:24;;;;;;;40.47;24.83;;;;;;;8.51;100.00;162790.41;5069763;28;20082;-61
2023/03/21 04:21:49;;;;;;;31.48;21.52;;;;;;;8.56;100.00;162803.88;5071315;28;20070;-61
2023/03/21 04:24:14;;;;;;;32.83;22.67;;;;;;;8.57;100.00;162806.56;5070413;28;20024;-59
2023/03/21 04:26:40;;;;;;;31.02;21.33;;;;;;;8.55;100.00;162801.16;5070671;28;20039;-59
2023/03/21 04:29:05;;;;;;;35.50;22.40;;;;;;;8.59;100.00;162810.59;5071353;28;20028;-60
2023/03/21 04:31:33;;;;;;;32.17;23.10;;;;;;;8.64;100.00;162822.75;5069721;28;20056;-60
2023/03/21 04:34:00;;;;;;;31.10;21.85;;;;;;;8.62;100.00;162817.34;5070853;28;20107;-63
2023/03/21 04:36:32;;;;;;;29.25;21.30;;;;;;;8.62;100.00;162817.34;5069075;28;20040;-63
2023/03/21 04:38:59;;;;;;;27.80;18.58;;;;;;;8.57;100.00;162806.56;5071120;28;20024;-63
2023/03/21 04:41:26;;;;;;;27.10;19.75;;;;;;;8.61;100.00;162814.63;5069621;28;20040;-63
2023/03/21 04:43:52;;;;;;;30.85;17.63;;;;;;;8.62;100.00;162817.34;5071013;28;20046;-62
2023/03/21 04:46:17;;;;;;;31.02;18.80;;;;;;;8.58;100.00;162807.91;5069574;28;20052;-63
2023/03/21 04:48:42;;;;;;;26.48;19.30;;;;;;;8.59;100.00;162809.28;5070401;28;20085;-62
2023/03/21 04:51:08;;;;;;;36.67;25.20;;;;;;;8.55;100.00;162801.16;5069480;28;20037;-62
2023/03/21 04:53:34;;;;;;;35.42;20.95;;;;;;;8.51;100.00;162790.41;5070794;28;20036;-62
2023/03/21 04:55:59;;;;;;;29.40;21.08;;;;;;;8.51;100.00;162790.41;5068732;28;20049;-63
2023/03/21 04:58:25;;;;;;;33.00;22.38;;;;;;;8.46;100.00;162776.84;5070899;28;20024;-63
2023/03/21 05:00:51;;;;;;;39.42;22.35;;;;;;;8.45;100.00;162774.13;5069192;28;20102;-63
2023/03/21 05:03:21;;;;;;;37.00;20.80;;;;;;;8.44;100.00;162770.13;5070564;28;20499;-63
2023/03/21 05:05:46;;;;;;;28.42;18.98;;;;;;;8.39;100.00;162759.34;5069226;28;20392;-62
2023/03/21 05:08:13;;;;;;;42.83;20.17;;;;;;;8.39;100.00;162757.97;5070679;28;20039;-62
2023/03/21 05:10:39;;;;;;;29.60;18.48;;;;;;;8.38;100.00;162755.25;5069071;28;20045;-61
2023/03/21 05:13:04;;;;;;;28.13;17.70;;;;;;;8.38;100.00;162756.66;5069778;28;20032;-60
2023/03/21 05:15:30;;;;;;;25.45;20.38;;;;;;;8.34;100.00;162744.50;5069189;28;20051;-61
2023/03/21 05:17:57;;;;;;;32.97;18.33;;;;;;;8.27;100.00;162726.97;5069831;28;20043;-60
2023/03/21 05:20:23;;;;;;;34.88;20.48;;;;;;;8.31;100.00;162737.78;5069095;28;20040;-60
2023/03/21 05:22:49;;;;;;;36.30;19.90;;;;;;;8.28;100.00;162728.34;5070351;28;20828;-62
2023/03/21 05:25:16;;;;;;;32.15;19.23;;;;;;;8.24;100.00;162720.25;5057023;28;20457;-61
2023/03/21 05:27:44;;;;;;;34.65;20.77;;;;;;;8.22;100.00;162714.88;5057075;28;20380;-60
2023/03/21 05:30:16;;;;;;;30.75;18.95;;;;;;;8.24;100.00;162718.91;5062120;28;20045;-61
2023/03/21 05:32:42;;;;;;;34.65;20.58;;;;;;;8.19;100.00;162706.78;5070252;28;20150;-60
2023/03/21 05:35:08;;;;;;;32.33;20.63;;;;;;;8.24;100.00;162720.25;5069500;28;20540;-60
2023/03/21 05:37:34;;;;;;;30.88;20.40;;;;;;;8.22;100.00;162714.88;5070326;28;20036;-60
2023/03/21 05:40:00;;;;;;;29.10;18.15;;;;;;;8.21;100.00;162712.19;5068178;28;20056;-60
2023/03/21 05:42:25;;;;;;;43.05;20.05;;;;;;;8.15;100.00;162696.00;5070495;28;20063;-60
2023/03/21 05:44:51;;;;;;;27.42;18.67;;;;;;;8.18;100.00;162702.75;5069144;28;20041;-60
2023/03/21 05:47:18;;;;;;;26.25;19.88;;;;;;;8.18;100.00;162704.06;5071870;28;20028;-60
2023/03/21 05:49:44;;;;;;;25.23;17.23;;;;;;;8.14;100.00;162693.31;5072798;28;20121;-59
2023/03/21 05:52:10;;;;;;;33.53;18.80;;;;;;;8.12;100.00;162687.91;5074493;28;20111;-59
2023/03/21 05:54:35;;;;;;;30.45;21.70;;;;;;;8.10;100.00;162683.88;5071930;28;20515;-60
2023/03/21 05:57:02;;;;;;;29.20;18.65;;;;;;;8.16;100.00;162698.66;5074199;28;20020;-60
2023/03/21 05:59:27;;;;;;;41.42;21.27;;;;;;;8.17;100.00;162701.38;5073319;28;20028;-59
2023/03/21 06:01:52;;;;;;;38.88;19.88;;;;;;;8.17;100.00;162700.03;5067226;28;20040;-59
2023/03/21 06:04:18;;;;;;;33.03;19.13;;;;;;;8.18;100.00;162702.75;5058841;28;20039;-59
2023/03/21 06:06:43;;;;;;;37.63;21.17;;;;;;;8.16;100.00;162698.66;5061574;28;20115;-60
2023/03/21 06:09:09;;;;;;;25.50;18.67;;;;;;;8.16;100.00;162698.66;5062054;28;20035;-60
2023/03/21 06:11:36;;;;;;;35.85;18.13;;;;;;;8.11;100.00;162685.19;5061705;28;20503;-60
2023/03/21 06:14:02;;;;;;;33.78;18.17;;;;;;;8.14;100.00;162691.94;5067663;28;20051;-60
2023/03/21 06:16:28;;;;;;;34.40;21.88;;;;;;;8.12;100.00;162686.59;5061010;28;20033;-60
2023/03/21 06:18:54;;;;;;;37.50;21.10;;;;;;;8.15;100.00;162694.63;5062767;28;20074;-59
2023/03/21 06:21:21;;;;;;;29.40;20.83;;;;;;;8.17;100.00;162701.38;5058483;28;20061;-59
2023/03/21 06:23:46;;;;;;;29.27;20.15;;;;;;;8.14;100.00;162691.94;5059286;28;20024;-60
2023/03/21 06:26:12;;;;;;;41.58;23.05;;;;;;;8.18;100.00;162704.06;5068716;28;20454;-60
2023/03/21 06:28:38;;;;;;;37.78;21.25;;;;;;;8.15;100.00;162696.00;5073912;28;20125;-60
2023/03/21 06:31:03;;;;;;;34.85;19.75;;;;;;;8.12;100.00;162686.59;5071380;28;20539;-60
2023/03/21 06:33:28;;;;;;;29.40;17.75;;;;;;;8.11;100.00;162685.19;5072387;28;20078;-60
2023/03/21 06:35:56;;;;;;;41.85;22.58;;;;;;;8.12;100.00;162686.59;5070745;28;20432;-59
2023/03/21 06:38:22;;;;;;;40.65;19.38;;;;;;;8.16;100.00;162698.66;5073352;28;20579;-60
2023/03/21 06:40:48;;;;;;;38.17;21.63;;;;;;;8.18;100.00;162704.06;5059842;28;20087;-60
2023/03/21 06:43:15;;;;;;;38.10;20.73;;;;;;;8.19;100.00;162706.78;5052441;28;20059;-59
2023/03/21 06:45:41;;;;;;;39.45;19.42;;;;;;;8.20;100.00;162709.47;5049729;28;20381;-60
2023/03/21 06:48:07;;;;;;;28.83;19.50;;;;;;;8.23;100.00;162717.53;5051813;28;20086;-60
2023/03/21 06:50:32;;;;;;;26.20;20.00;;;;;;;8.23;100.00;162716.22;5050681;28;20041;-59
2023/03/21 06:52:58;;;;;;;40.80;18.95;;;;;;;8.24;100.00;162720.25;5051530;28;20487;-60
2023/03/21 06:55:25;;;;;;;35.78;21.55;;;;;;;8.26;100.00;162724.31;5051119;28;20025;-60
2023/03/21 06:57:55;;;;;;;34.25;21.88;;;;;;;8.23;100.00;162717.53;5058280;28;20032;-60
2023/03/21 07:00:21;;;;;;;26.38;18.42;;;;;;;8.26;100.00;162725.63;5066625;28;20028;-59
2023/03/21 07:02:47;;;;;;;34.08;17.83;;;;;;;8.26;100.00;162724.31;5072787;28;20033;-59
2023/03/21 07:05:13;;;;;;;35.92;19.25;;;;;;;8.28;100.00;162728.34;5071341;28;20040;-59
2023/03/21 07:07:39;;;;;;;33.50;18.60;;;;;;;8.26;100.00;162725.63;5072552;28;20036;-60
2023/03/21 07:10:05;;;;;;;29.35;17.58;;;;;;;8.31;100.00;162736.41;5073409;28;20029;-59
2023/03/21 07:12:33;;;;;;;31.10;17.17;;;;;;;8.30;100.00;162733.75;5071418;28;20098;-59
2023/03/21 07:15:03;;;;;;;41.30;21.02;;;;;;;8.30;100.00;162733.75;5072655;28;20028;-59
2023/03/21 07:17:28;;;;;;;34.50;19.00;;;;;;;8.32;100.00;162739.09;5071629;28;20041;-59
2023/03/21 07:19:54;;;;;;;36.35;17.80;;;;;;;8.24;100.00;162720.25;5072343;28;20106;-60
2023/03/21 07:22:19;;;;;;;27.33;16.27;;;;;;;8.29;100.00;162732.38;5070663;28;20055;-59
2023/03/21 07:24:47;;;;;;;25.92;16.80;;;;;;;8.28;100.00;162728.34;5072997;28;20024;-60
2023/03/21 07:27:14;;;;;;;27.63;16.00;;;;;;;8.29;100.00;162731.03;5071073;28;20049;-59
2023/03/21 07:29:39;;;;;;;31.55;16.85;;;;;;;8.27;100.00;162726.97;5070889;28;20403;-59
2023/03/21 07:32:05;;;;;;;29.60;18.88;;;;;;;8.29;100.00;162731.03;5072692;28;20017;-60
2023/03/21 07:34:32;;;;;;;28.27;16.75;;;;;;;8.36;100.00;162751.25;5071042;28;20025;-59
2023/03/21 07:36:58;;;;;;;29.88;18.45;;;;;;;8.42;100.00;162766.09;5057110;28;20113;-60
2023/03/21 07:39:24;;;;;;;31.23;20.40;;;;;;;8.45;100.00;162774.13;5051371;28;20021;-60
2023/03/21 07:41:50;;;;;;;29.30;17.13;;;;;;;8.49;100.00;162785.00;5063291;28;20032;-60
2023/03/21 07:44:15;;;;;;;31.00;18.45;;;;;;;8.49;100.00;162785.00;5070751;28;20383;-59
2023/03/21 07:46:41;;;;;;;34.17;18.50;;;;;;;8.52;100.00;162793.09;5071916;28;20032;-60
2023/03/21 07:49:07;;;;;;;36.97;19.88;;;;;;;8.59;100.00;162809.28;5072416;28;20028;-60
2023/03/21 07:51:34;;;;;;;42.40;18.92;;;;;;;8.65;100.00;162825.44;5070539;28;20106;-60
2023/03/21 07:54:00;;;;;;;34.00;18.58;;;;;;;8.67;100.00;162830.84;5071722;28;20032;-60
2023/03/21 07:56:26;;;;;;;25.15;15.80;;;;;;;8.74;100.00;162849.72;5070758;28;20571;-60
2023/03/21 07:58:51;;;;;;;30.80;18.08;;;;;;;8.80;100.00;162865.91;5071469;28;20020;-60
2023/03/21 08:01:17;;;;;;;35.58;18.17;;;;;;;8.89;100.00;162888.81;5070321;28;20526;-60
2023/03/21 08:03:43;;;;;;;26.02;15.45;;;;;;;8.99;100.00;162915.78;5071774;28;20388;-60
2023/03/21 08:06:08;;;;;;;35.92;16.80;;;;;;;9.06;100.00;162933.28;5070601;28;20040;-60
2023/03/21 08:08:34;;;;;;;20.30;12.93;;;;;;;9.11;100.00;162946.81;5071517;28;20036;-59
2023/03/21 08:10:59;;;;;;;25.88;15.63;;;;;;;9.15;100.00;162956.25;5069167;28;20045;-60
2023/03/21 08:13:25;;;;;;;24.73;14.80;;;;;;;9.25;100.00;162981.84;5072054;28;20467;-60
2023/03/21 08:15:50;;;;;;;35.90;16.42;;;;;;;9.31;100.00;162999.38;5065538;28;20047;-60
2023/03/21 08:18:15;;;;;;;27.15;13.50;;;;;;;9.39;100.00;163018.25;5071278;28;20053;-59
2023/03/21 08:20:41;;;;;;;18.42;13.32;;;;;;;9.43;100.00;163030.38;5069707;28;20041;-60
2023/03/21 08:23:06;;;;;;;29.65;14.13;;;;;;;9.48;100.00;163043.91;5071302;28;20029;-60
2023/03/21 08:25:32;;;;;;;23.17;14.77;;;;;;;9.56;100.00;163062.78;5070355;28;20040;-60
2023/03/21 08:27:58;;;;;;;21.95;13.35;;;;;;;9.57;100.00;163065.50;5071281;28;20078;-60
2023/03/21 08:30:25;;;;;;;22.77;14.18;;;;;;;9.62;100.00;163078.97;5069751;28;20045;-60
2023/03/21 08:32:56;;;;;;;26.08;12.80;;;;;;;9.76;100.00;163116.75;5071093;28;20024;-60
2023/03/21 08:35:21;;;;;;;20.55;13.35;;;;;;;9.87;100.00;163143.69;5070234;28;20036;-60
2023/03/21 08:37:47;;;;;;;22.88;12.02;;;;;;;9.89;100.00;163149.09;5070993;28;20086;-60
2023/03/21 08:40:16;;;;;;;27.13;13.63;;;;;;;9.94;100.00;163162.63;5070119;28;20039;-60
2023/03/21 08:42:42;;;;;;;15.95;11.35;;;;;;;10.05;100.00;163192.28;5065252;28;20480;-60
2023/03/21 08:45:09;;;;;;;25.15;13.25;;;;;;;10.21;100.00;163232.78;5068991;28;20043;-60
2023/03/21 08:47:35;;;;;;;20.60;11.48;;;;;;;10.26;100.00;163247.63;5071554;28;20032;-60
2023/03/21 08:50:00;;;;;;;20.63;11.88;;;;;;;10.39;100.00;163281.38;5069473;28;20041;-60
2023/03/21 08:52:26;;;;;;;15.90;11.25;;;;;;;10.45;100.00;163297.63;5070672;28;20361;-60
2023/03/21 08:54:53;;;;;;;17.13;10.68;;;;;;;10.38;100.00;163278.72;5069673;28;20063;-60
2023/03/21 08:57:18;;;;;;;15.90;9.88;;;;;;;10.38;100.00;163278.72;5071203;28;20021;-60
2023/03/21 08:59:44;;;;;;;17.77;9.07;;;;;;;10.43;100.00;163292.22;5069064;28;20086;-60
2023/03/21 09:02:13;;;;;;;15.35;10.57;;;;;;;10.41;100.00;163285.47;5071286;28;20379;-60
2023/03/21 09:04:39;;;;;;;17.60;10.75;;;;;;;10.35;100.00;163269.25;5069767;28;20040;-60
2023/03/21 09:07:04;;;;;;;19.70;12.93;;;;;;;10.33;100.00;163265.16;5070741;28;20494;-60
2023/03/21 09:09:30;;;;;;;13.63;10.55;;;;;;;10.27;100.00;163248.97;5069488;28;20425;-60
2023/03/21 09:11:56;;;;;;;14.60;10.23;;;;;;;10.30;100.00;163257.09;5064788;28;20483;-60
2023/03/21 09:14:21;;;;;;;16.75;8.70;;;;;;;10.41;100.00;163286.81;5059507;28;20028;-60
2023/03/21 09:16:47;;;;;;;17.95;10.85;;;;;;;10.30;100.00;163257.09;5060516;28;20057;-60
2023/03/21 09:19:12;;;;;;;22.65;9.52;;;;;;;10.24;100.00;163240.91;5059332;28;20059;-60
2023/03/21 09:21:38;;;;;;;24.63;10.45;;;;;;;10.22;100.00;163235.47;5057616;28;20048;-60
2023/03/21 09:24:05;;;;;;;20.83;11.15;;;;;;;10.22;100.00;163235.47;5070590;28;20066;-60
2023/03/21 09:26:32;;;;;;;19.48;11.65;;;;;;;10.14;100.00;163216.59;5069172;28;20388;-60
2023/03/21 09:28:59;;;;;;;15.32;10.90;;;;;;;10.13;100.00;163212.50;5070157;28;20471;-60
2023/03/21 09:31:29;;;;;;;22.17;12.35;;;;;;;10.18;100.00;163224.66;5069231;28;20052;-60
2023/03/21 09:33:56;;;;;;;24.63;11.57;;;;;;;10.11;100.00;163208.47;5070413;28;20580;-60
2023/03/21 09:36:23;;;;;;;16.58;12.00;;;;;;;9.99;100.00;163176.09;5069118;28;20032;-60
2023/03/21 09:38:49;;;;;;;25.13;12.07;;;;;;;9.91;100.00;163154.50;5070744;28;20024;-60
2023/03/21 09:41:52;;;;;;;13.70;10.70;;;;;;;9.77;100.00;163118.06;5069130;28;20082;-60
2023/03/21 09:44:48;;;;;;;23.20;14.20;;;;;;;9.68;100.00;163095.16;5069167;28;20117;-59
2023/03/21 09:47:23;;;;;;;62.40;14.35;;;;;;;9.65;100.00;163088.41;5070797;28;20073;-60
2023/03/21 09:50:03;;;;;;;21.05;12.63;;;;;;;9.74;100.00;163111.34;5069155;28;20045;-59
2023/03/21 09:52:42;;;;;;;17.48;11.60;;;;;;;9.84;100.00;163136.97;5070538;28;20153;-60
2023/03/21 09:55:18;;;;;;;20.42;13.02;;;;;;;9.82;100.00;163131.59;5069380;28;20032;-60
2023/03/21 09:57:48;;;;;;;20.65;12.43;;;;;;;9.82;100.00;163132.94;5070001;28;20494;-60
2023/03/21 10:00:36;;;;;;;32.88;14.95;;;;;;;9.99;100.00;163176.09;5069215;28;20044;-60
2023/03/21 10:03:06;;;;;;;19.65;14.05;;;;;;;10.04;100.00;163188.25;5070141;28;20383;-60
2023/03/21 10:05:33;;;;;;;22.88;11.93;;;;;;;10.10;100.00;163204.44;5068881;28;20040;-60
2023/03/21 10:08:21;;;;;;;19.40;13.15;;;;;;;10.04;100.00;163189.59;5070183;28;20539;-60
2023/03/21 10:10:49;;;;;;;19.65;13.20;;;;;;;10.05;100.00;163192.28;5068662;28;20522;-60
2023/03/21 10:13:28;;;;;;;16.88;11.27;;;;;;;10.01;100.00;163181.53;5069954;28;20031;-60
2023/03/21 10:16:00;;;;;;;23.83;13.15;;;;;;;10.06;100.00;163195.00;5068795;28;20045;-60
2023/03/21 10:18:29;;;;;;;21.05;14.23;;;;;;;10.07;100.00;163196.31;5068994;28;20041;-60
2023/03/21 10:20:56;;;;;;;20.40;13.00;;;;;;;10.08;100.00;163200.41;5061488;28;20120;-60
2023/03/21 10:23:25;;;;;;;17.73;12.55;;;;;;;10.14;100.00;163216.59;5062978;28;20036;-60
2023/03/21 10:25:58;;;;;;;21.85;12.82;;;;;;;10.23;100.00;163238.19;5068214;28;20036;-60
2023/03/21 10:28:27;;;;;;;23.58;13.52;;;;;;;10.29;100.00;163255.72;5070144;28;20445;-60
2023/03/21 10:30:56;;;;;;;23.48;11.50;;;;;;;10.41;100.00;163286.81;5068357;28;20106;-60
2023/03/21 10:33:30;;;;;;;19.40;13.02;;;;;;;10.37;100.00;163276.03;5070040;28;20083;-60
2023/03/21 10:36:00;;;;;;;20.30;10.35;;;;;;;10.41;100.00;163285.47;5071481;28;20094;-60
2023/03/21 10:38:26;;;;;;;18.65;11.88;;;;;;;10.37;100.00;163276.03;5073882;28;20028;-60
2023/03/21 10:40:53;;;;;;;22.42;13.05;;;;;;;10.32;100.00;163262.44;5066101;28;20056;-60
2023/03/21 10:43:18;;;;;;;20.02;12.55;;;;;;;10.30;100.00;163258.41;5073174;28;20021;-60
2023/03/21 10:45:46;;;;;;;23.48;11.48;;;;;;;10.28;100.00;163253.00;5071942;28;20461;-60
2023/03/21 10:48:11;;;;;;;19.73;13.73;;;;;;;10.21;100.00;163232.78;5073909;28;20031;-60
2023/03/21 10:50:37;;;;;;;19.88;12.50;;;;;;;10.18;100.00;163226.03;5071785;28;20044;-60
2023/03/21 10:53:02;;;;;;;14.15;9.88;;;;;;;10.08;100.00;163200.41;5073038;28;20028;-60
2023/03/21 10:55:33;;;;;;;21.35;12.55;;;;;;;10.10;100.00;163205.78;5071976;28;20041;-60
2023/03/21 10:58:17;;;;;;;26.70;16.05;;;;;;;10.13;100.00;163212.50;5072853;28;20165;-60
2023/03/21 11:00:45;;;;;;;17.13;12.52;;;;;;;10.12;100.00;163211.19;5071662;28;20037;-60
2023/03/21 11:03:23;;;;;;;18.70;11.63;;;;;;;10.12;100.00;163209.84;5073563;28;20029;-60
2023/03/21 11:05:54;;;;;;;24.90;15.65;;;;;;;10.12;100.00;163211.19;5070993;28;20113;-60
2023/03/21 11:08:20;;;;;;;26.63;16.95;;;;;;;10.15;100.00;163219.28;5069618;28;20040;-60
2023/03/21 11:11:07;;;;;;;20.10;12.68;;;;;;;10.23;100.00;163238.19;5069345;28;20399;-60
2023/03/21 11:13:43;;;;;;;25.50;15.25;;;;;;;10.21;100.00;163232.78;5071834;28;20024;-60
2023/03/21 11:16:24;;;;;;;18.33;12.40;;;;;;;10.30;100.00;163257.09;5071013;28;20162;-60